Archival Weather

Abadan

Abadan, Iran (OIAA)

Report from: Wednesday, December 6, 2023 2:00 PM UTC
Current time: Friday, February 23, 2024 9:19 PM UTC

Current weather – Weather history – Daily summaries
Weather forecast

Temperature22.0°C (71.6°F)
Dew point6.0°C (42.8°F)
Winds 2 kts (1 m/s, 2.3 mph) East-Northeast (60°)
Visibility5 mi. (8 km)
Clouds Few clouds 4,000 ft. (1,219 m)
Ceiling: Broken clouds 10,000 ft. (3,048 m)
Broken clouds 20,000 ft. (6,096 m)
Altimeter30.03 in.Hg (1017 mB)
Relative humidity35 %
Density altitude828 ft. (252 m)
Flight conditions Marginal Visual Meteorological Conditions
Raw dataOIAA 061400Z 06002KT 8000 FEW040 BKN100 BKN200 22/06 Q1017
An error has occurred. This application may no longer respond until reloaded. Reload 🗙